Highgrove, Kentucky
Current Conditions -  °F | °C
As of 11:56 PM on Tuesday 25 Nov 2014 (Local Time) from KSDF Reporting Station
Broken Clouds Broken Clouds  
Wind Chill: 26°   Ceiling: 21000
Heat Index: 33°   Visibility: 10mi
Dew Point: 26°   Wind: 8mph
Humidity: 75%   Direction: 10°N
Pressure: 30.18"   Gusts: NA
Location:  37.9212°N, 85.4864°W
Report Text: KSDF 260456Z 01007KT 10SM FEW170 BKN210 01/M03 A3018 RMK AO2 SLP222 T00061033 400830006
Loading
Personal Weather Stations






























Interactive Weather Map New forecast layout! Learn more

10-Day Weather Forecast

Advertisements
Track Severe Weather on mobile